EBBRLIRA

Guest
Details From EBBR - Brussels Airport
To LIRA - Ciampino
Flight Number -
Tags Generated
Created
Modified
Stats Distance 639 nm / 1,184 km
Max Altitude 0 ft / 0 m
Waypoints 4
Social Downloads 1
Likes 0
Share VATSIM

Download

Looking for another format? Having issues loading an existing format? Contact us
Advertisement - Login to hide

Notes

Generated

Route

EBBR LUKOM R1815 LIRA

ID Type Via Altitude Latitude Longitude Leg Dist Tot Dist Heading (true) Name
O EBBR APT - 0 ft / 0 m 50.88681˚ 4.49135˚ - 0 nm - -
LUKOM FIX - 0 ft / 0 m 46.58500˚ 8.75861˚ 308 nm 308 nm 145° / 148° -
R1815 FIX - 0 ft / 0 m 41.80806˚ 12.58883˚ 330 nm 639 nm 149° / 151° -
O LIRA APT - 0 ft / 0 m 41.80806˚ 12.58883˚ 0 nm 639 nm 0° / 180° -

Altitude Profile

Advertisement - Login to hide

Weather


0- 5 10 15 20 25 30 35+ Temperature / ° C

Clouds and Precipitation
Forecast for 2017-12-18 00:00 UTC. Updated an hour ago

Ground ~20,000 ft ~40,000 ft Winds

EBBR

Details ICAO EBBR (BRU)
Name Brussels Airport
Region Belgium
Timezone Europe/Brussels (UTC+1.0)
Stats Elevation 184 ft / 56 m (AMSL)
Location 50.899948° 4.492814°
Runways 3
Magnetic Variation 1.124° E

METAR

EBBR 172150Z 19015G25KT 5000 -RA SCT006 BKN009 BKN023 03/01 Q1019 TEMPO 4000 RADZ BKN007

Decode

TAF

TAF TAF EBBR 171710Z 1718/1824 20010KT 7000 SCT012 BKN030 BECMG 1719/1721 SCT008 BKN012 TEMPO 1720/1803 4000 RADZ BKN007 PROB30 TEMPO 1721/2723 20015G25KT BECMG 1800/1802 27010KT BECMG 1802/1804 33010KT SCT012 BKN030

Decode

Departure Runways

ID Width Length Bearing (true) Bearing (mag) Surface Threshold Offset Overrun Length
02 164 ft / 50 m 9,896 ft / 3,016 m 14.41° 13.29° Asphalt 249 ft / 76 m 0 ft / 0 m
07L 148 ft / 45 m 12,106 ft / 3,690 m 65.16° 64.04° Asphalt 801 ft / 244 m 0 ft / 0 m
07R 148 ft / 45 m 10,703 ft / 3,262 m 69.90° 68.78° Asphalt 499 ft / 152 m 0 ft / 0 m
20 164 ft / 50 m 9,896 ft / 3,016 m 194.42° 193.30° Asphalt 751 ft / 229 m 0 ft / 0 m
25L 148 ft / 45 m 10,703 ft / 3,262 m 249.93° 248.81° Asphalt 499 ft / 152 m 0 ft / 0 m
25R 148 ft / 45 m 12,106 ft / 3,690 m 245.20° 244.08° Asphalt 801 ft / 244 m 0 ft / 0 m

LIRA

Details ICAO LIRA (CIA)
Name CIAMPINO
Region Italy
Timezone Europe/Rome (UTC+1.0)
Stats Elevation 427 ft / 130 m (AMSL)
Location 41.799228° 12.594917°
Runways 1
Magnetic Variation 3.058° E

METAR

LIRA 172150Z 03006KT CAVOK 03/M03 Q1019

Decode

TAF

TAF LIRA 171700Z 1718/1818 02008KT 9999 SCT030

Decode

Destination Runways

ID Width Length Bearing (true) Bearing (mag) Surface Threshold Offset Overrun Length
15 154 ft / 47 m 7,246 ft / 2,209 m 152.79° 149.73° Asphalt 0 ft / 0 m 0 ft / 0 m
33 154 ft / 47 m 7,246 ft / 2,209 m 332.80° 329.74° Asphalt 0 ft / 0 m 0 ft / 0 m

Approach Navaids

Runway Type Ident Frequency Range Bearing (true) Bearing (mag) Slope Elevation
15 Localiser CIA 109.90 MHz 18 nm / 33 km 152.81° 149.75° - 426 ft / 130 m (AMSL)
15 Glidescope CIA 109.90 MHz 10 nm / 19 km 152.79° 149.74° 3.00° 384 ft / 117 m (AMSL)

Popular Alternatives